sensor_id;sensor_type;location;lat;lon;timestamp;temperature;humidity
30148;DHT22;16960;49.404;8.248;2022-07-26T00:00:52;25.50;44.50
30148;DHT22;16960;49.404;8.248;2022-07-26T00:03:19;25.40;44.40
30148;DHT22;16960;49.404;8.248;2022-07-26T00:05:46;25.40;44.50
30148;DHT22;16960;49.404;8.248;2022-07-26T00:08:13;25.30;44.50
30148;DHT22;16960;49.404;8.248;2022-07-26T00:10:43;25.30;44.60
30148;DHT22;16960;49.404;8.248;2022-07-26T00:13:11;25.40;44.60
30148;DHT22;16960;49.404;8.248;2022-07-26T00:15:38;25.40;44.60
30148;DHT22;16960;49.404;8.248;2022-07-26T00:18:05;25.30;44.60
30148;DHT22;16960;49.404;8.248;2022-07-26T00:20:32;25.30;44.70
30148;DHT22;16960;49.404;8.248;2022-07-26T00:22:59;25.40;44.70
30148;DHT22;16960;49.404;8.248;2022-07-26T00:25:26;25.40;44.70
30148;DHT22;16960;49.404;8.248;2022-07-26T00:27:55;25.30;44.80
30148;DHT22;16960;49.404;8.248;2022-07-26T00:30:22;25.30;44.80
30148;DHT22;16960;49.404;8.248;2022-07-26T00:32:50;25.30;44.90
30148;DHT22;16960;49.404;8.248;2022-07-26T00:35:18;25.30;45.00
30148;DHT22;16960;49.404;8.248;2022-07-26T00:37:45;25.30;45.10
30148;DHT22;16960;49.404;8.248;2022-07-26T00:40:13;25.20;45.20
30148;DHT22;16960;49.404;8.248;2022-07-26T00:42:41;25.20;45.10
30148;DHT22;16960;49.404;8.248;2022-07-26T00:45:11;25.20;45.30
30148;DHT22;16960;49.404;8.248;2022-07-26T00:47:38;25.20;45.50
30148;DHT22;16960;49.404;8.248;2022-07-26T00:50:07;25.20;45.70
30148;DHT22;16960;49.404;8.248;2022-07-26T00:52:35;25.10;45.80
30148;DHT22;16960;49.404;8.248;2022-07-26T00:55:03;25.10;45.80
30148;DHT22;16960;49.404;8.248;2022-07-26T00:57:32;25.00;46.00
30148;DHT22;16960;49.404;8.248;2022-07-26T01:00:00;25.00;46.10
30148;DHT22;16960;49.404;8.248;2022-07-26T01:02:28;25.00;46.30
30148;DHT22;16960;49.404;8.248;2022-07-26T01:04:55;24.90;46.40
30148;DHT22;16960;49.404;8.248;2022-07-26T01:07:23;24.90;46.60
30148;DHT22;16960;49.404;8.248;2022-07-26T01:09:50;24.90;46.90
30148;DHT22;16960;49.404;8.248;2022-07-26T01:12:17;24.80;47.00
30148;DHT22;16960;49.404;8.248;2022-07-26T01:14:44;24.70;47.20
30148;DHT22;16960;49.404;8.248;2022-07-26T01:17:12;24.70;47.30
30148;DHT22;16960;49.404;8.248;2022-07-26T01:19:40;24.60;47.30
30148;DHT22;16960;49.404;8.248;2022-07-26T01:22:09;24.60;47.40
30148;DHT22;16960;49.404;8.248;2022-07-26T01:24:36;24.50;47.80
30148;DHT22;16960;49.404;8.248;2022-07-26T01:27:03;24.40;47.80
30148;DHT22;16960;49.404;8.248;2022-07-26T01:29:30;24.40;47.90
30148;DHT22;16960;49.404;8.248;2022-07-26T01:31:57;24.40;47.80
30148;DHT22;16960;49.404;8.248;2022-07-26T01:34:24;24.40;47.80
30148;DHT22;16960;49.404;8.248;2022-07-26T01:36:51;24.30;47.80
30148;DHT22;16960;49.404;8.248;2022-07-26T01:39:20;24.30;47.80
30148;DHT22;16960;49.404;8.248;2022-07-26T01:41:47;24.30;48.00
30148;DHT22;16960;49.404;8.248;2022-07-26T01:44:14;24.30;48.20
30148;DHT22;16960;49.404;8.248;2022-07-26T01:46:41;24.30;48.30
30148;DHT22;16960;49.404;8.248;2022-07-26T01:49:08;24.30;48.30
30148;DHT22;16960;49.404;8.248;2022-07-26T01:51:35;24.20;48.60
30148;DHT22;16960;49.404;8.248;2022-07-26T01:54:02;24.10;48.70
30148;DHT22;16960;49.404;8.248;2022-07-26T01:56:30;24.10;48.80
30148;DHT22;16960;49.404;8.248;2022-07-26T01:58:57;24.00;48.90
30148;DHT22;16960;49.404;8.248;2022-07-26T02:01:24;24.00;48.80
30148;DHT22;16960;49.404;8.248;2022-07-26T02:03:51;24.00;48.80
30148;DHT22;16960;49.404;8.248;2022-07-26T02:06:18;24.10;49.00
30148;DHT22;16960;49.404;8.248;2022-07-26T02:08:45;24.00;48.80
30148;DHT22;16960;49.404;8.248;2022-07-26T02:11:12;24.00;48.90
30148;DHT22;16960;49.404;8.248;2022-07-26T02:13:41;24.00;48.80
30148;DHT22;16960;49.404;8.248;2022-07-26T02:16:09;24.00;48.60
30148;DHT22;16960;49.404;8.248;2022-07-26T02:18:36;24.00;48.60
30148;DHT22;16960;49.404;8.248;2022-07-26T02:21:05;24.00;48.40
30148;DHT22;16960;49.404;8.248;2022-07-26T02:23:33;24.00;48.40
30148;DHT22;16960;49.404;8.248;2022-07-26T02:26:01;24.00;48.30
30148;DHT22;16960;49.404;8.248;2022-07-26T02:28:28;24.00;48.10
30148;DHT22;16960;49.404;8.248;2022-07-26T02:30:56;23.90;48.10
30148;DHT22;16960;49.404;8.248;2022-07-26T02:33:23;23.90;48.10
30148;DHT22;16960;49.404;8.248;2022-07-26T02:35:50;23.80;47.90
30148;DHT22;16960;49.404;8.248;2022-07-26T02:38:17;23.80;47.90
30148;DHT22;16960;49.404;8.248;2022-07-26T02:40:44;23.90;47.70
30148;DHT22;16960;49.404;8.248;2022-07-26T02:43:11;23.90;47.50
30148;DHT22;16960;49.404;8.248;2022-07-26T02:45:38;23.90;47.50
30148;DHT22;16960;49.404;8.248;2022-07-26T02:48:06;23.90;47.40
30148;DHT22;16960;49.404;8.248;2022-07-26T02:50:34;23.90;47.40
30148;DHT22;16960;49.404;8.248;2022-07-26T02:53:01;23.90;47.30
30148;DHT22;16960;49.404;8.248;2022-07-26T02:55:28;23.90;47.20
30148;DHT22;16960;49.404;8.248;2022-07-26T02:57:55;23.90;47.20
30148;DHT22;16960;49.404;8.248;2022-07-26T03:00:24;24.00;47.00
30148;DHT22;16960;49.404;8.248;2022-07-26T03:02:52;24.00;46.70
30148;DHT22;16960;49.404;8.248;2022-07-26T03:05:20;24.00;46.60
30148;DHT22;16960;49.404;8.248;2022-07-26T03:07:47;24.00;46.60
30148;DHT22;16960;49.404;8.248;2022-07-26T03:10:15;24.00;46.50
30148;DHT22;16960;49.404;8.248;2022-07-26T03:12:42;23.90;46.40
30148;DHT22;16960;49.404;8.248;2022-07-26T03:15:10;23.90;46.50
30148;DHT22;16960;49.404;8.248;2022-07-26T03:17:37;23.80;46.40
30148;DHT22;16960;49.404;8.248;2022-07-26T03:20:05;23.70;46.60
30148;DHT22;16960;49.404;8.248;2022-07-26T03:22:34;23.60;46.50
30148;DHT22;16960;49.404;8.248;2022-07-26T03:25:01;23.50;46.40
30148;DHT22;16960;49.404;8.248;2022-07-26T03:27:28;23.50;46.30
30148;DHT22;16960;49.404;8.248;2022-07-26T03:29:55;23.50;46.30
30148;DHT22;16960;49.404;8.248;2022-07-26T03:32:21;23.50;46.40
30148;DHT22;16960;49.404;8.248;2022-07-26T03:34:48;23.50;46.50
30148;DHT22;16960;49.404;8.248;2022-07-26T03:37:16;23.50;46.50
30148;DHT22;16960;49.404;8.248;2022-07-26T03:39:44;23.50;46.40
30148;DHT22;16960;49.404;8.248;2022-07-26T03:42:11;23.40;46.40
30148;DHT22;16960;49.404;8.248;2022-07-26T03:44:38;23.40;46.50
30148;DHT22;16960;49.404;8.248;2022-07-26T03:47:05;23.30;46.60
30148;DHT22;16960;49.404;8.248;2022-07-26T03:49:32;23.30;46.80
30148;DHT22;16960;49.404;8.248;2022-07-26T03:51:59;23.20;46.90
30148;DHT22;16960;49.404;8.248;2022-07-26T03:54:26;23.10;47.30
30148;DHT22;16960;49.404;8.248;2022-07-26T03:56:54;23.20;47.50
30148;DHT22;16960;49.404;8.248;2022-07-26T03:59:20;23.20;47.80
30148;DHT22;16960;49.404;8.248;2022-07-26T04:01:49;23.10;48.20
30148;DHT22;16960;49.404;8.248;2022-07-26T04:04:16;23.00;48.40
30148;DHT22;16960;49.404;8.248;2022-07-26T04:06:45;22.90;48.70
30148;DHT22;16960;49.404;8.248;2022-07-26T04:09:13;22.70;49.10
30148;DHT22;16960;49.404;8.248;2022-07-26T04:11:40;22.50;49.30
30148;DHT22;16960;49.404;8.248;2022-07-26T04:14:09;22.50;49.60
30148;DHT22;16960;49.404;8.248;2022-07-26T04:16:36;22.30;49.60
30148;DHT22;16960;49.404;8.248;2022-07-26T04:19:03;22.30;49.70
30148;DHT22;16960;49.404;8.248;2022-07-26T04:21:30;22.20;49.80
30148;DHT22;16960;49.404;8.248;2022-07-26T04:23:57;22.20;50.00
30148;DHT22;16960;49.404;8.248;2022-07-26T04:26:24;22.10;50.30
30148;DHT22;16960;49.404;8.248;2022-07-26T04:28:52;22.10;50.50
30148;DHT22;16960;49.404;8.248;2022-07-26T04:31:20;22.10;50.60
30148;DHT22;16960;49.404;8.248;2022-07-26T04:33:47;22.00;50.50
30148;DHT22;16960;49.404;8.248;2022-07-26T04:36:14;22.00;50.30
30148;DHT22;16960;49.404;8.248;2022-07-26T04:38:41;22.10;50.20
30148;DHT22;16960;49.404;8.248;2022-07-26T04:41:08;22.10;50.00
30148;DHT22;16960;49.404;8.248;2022-07-26T04:43:35;22.20;50.00
30148;DHT22;16960;49.404;8.248;2022-07-26T04:46:02;22.30;49.70
30148;DHT22;16960;49.404;8.248;2022-07-26T04:48:31;22.20;50.20
30148;DHT22;16960;49.404;8.248;2022-07-26T04:50:58;22.20;50.20
30148;DHT22;16960;49.404;8.248;2022-07-26T04:53:25;22.10;50.40
30148;DHT22;16960;49.404;8.248;2022-07-26T04:55:52;22.10;50.70
30148;DHT22;16960;49.404;8.248;2022-07-26T04:58:19;22.10;50.90
30148;DHT22;16960;49.404;8.248;2022-07-26T05:00:46;22.00;50.90
30148;DHT22;16960;49.404;8.248;2022-07-26T05:03:13;22.00;51.00
30148;DHT22;16960;49.404;8.248;2022-07-26T05:05:41;22.00;51.20
30148;DHT22;16960;49.404;8.248;2022-07-26T05:08:08;22.00;51.10
30148;DHT22;16960;49.404;8.248;2022-07-26T05:10:36;21.90;51.50
30148;DHT22;16960;49.404;8.248;2022-07-26T05:13:04;21.80;51.90
30148;DHT22;16960;49.404;8.248;2022-07-26T05:15:33;21.70;52.20
30148;DHT22;16960;49.404;8.248;2022-07-26T05:18:02;21.70;51.90
30148;DHT22;16960;49.404;8.248;2022-07-26T05:20:29;21.70;52.20
30148;DHT22;16960;49.404;8.248;2022-07-26T05:22:58;21.70;52.30
30148;DHT22;16960;49.404;8.248;2022-07-26T05:25:25;21.60;52.30
30148;DHT22;16960;49.404;8.248;2022-07-26T05:27:52;21.60;52.60
30148;DHT22;16960;49.404;8.248;2022-07-26T05:30:19;21.60;52.40
30148;DHT22;16960;49.404;8.248;2022-07-26T05:32:46;21.60;52.40
30148;DHT22;16960;49.404;8.248;2022-07-26T05:35:14;21.60;52.30
30148;DHT22;16960;49.404;8.248;2022-07-26T05:37:41;21.60;52.40
30148;DHT22;16960;49.404;8.248;2022-07-26T05:40:11;21.60;52.00
30148;DHT22;16960;49.404;8.248;2022-07-26T05:42:38;21.80;51.50
30148;DHT22;16960;49.404;8.248;2022-07-26T05:45:06;21.80;51.50
30148;DHT22;16960;49.404;8.248;2022-07-26T05:47:33;21.80;51.20
30148;DHT22;16960;49.404;8.248;2022-07-26T05:50:00;21.80;50.70
30148;DHT22;16960;49.404;8.248;2022-07-26T05:52:27;21.70;50.80
30148;DHT22;16960;49.404;8.248;2022-07-26T05:54:54;21.70;50.80
30148;DHT22;16960;49.404;8.248;2022-07-26T05:57:23;21.60;50.40
30148;DHT22;16960;49.404;8.248;2022-07-26T05:59:50;21.50;50.80
30148;DHT22;16960;49.404;8.248;2022-07-26T06:02:17;21.30;51.10
30148;DHT22;16960;49.404;8.248;2022-07-26T06:04:44;21.30;51.10
30148;DHT22;16960;49.404;8.248;2022-07-26T06:07:11;21.40;51.00
30148;DHT22;16960;49.404;8.248;2022-07-26T06:09:38;21.40;51.00
30148;DHT22;16960;49.404;8.248;2022-07-26T06:12:05;21.40;51.20
30148;DHT22;16960;49.404;8.248;2022-07-26T06:14:34;21.40;51.10
30148;DHT22;16960;49.404;8.248;2022-07-26T06:17:01;21.50;50.90
30148;DHT22;16960;49.404;8.248;2022-07-26T06:19:29;21.50;50.70
30148;DHT22;16960;49.404;8.248;2022-07-26T06:21:57;21.50;50.30
30148;DHT22;16960;49.404;8.248;2022-07-26T06:24:24;21.50;50.50
30148;DHT22;16960;49.404;8.248;2022-07-26T06:26:51;21.50;50.60
30148;DHT22;16960;49.404;8.248;2022-07-26T06:29:20;21.50;50.50
30148;DHT22;16960;49.404;8.248;2022-07-26T06:31:48;21.60;50.00
30148;DHT22;16960;49.404;8.248;2022-07-26T06:34:15;21.60;49.90
30148;DHT22;16960;49.404;8.248;2022-07-26T06:36:42;21.60;49.70
30148;DHT22;16960;49.404;8.248;2022-07-26T06:39:09;21.60;50.00
30148;DHT22;16960;49.404;8.248;2022-07-26T06:41:36;21.60;50.10
30148;DHT22;16960;49.404;8.248;2022-07-26T06:44:03;21.50;50.10
30148;DHT22;16960;49.404;8.248;2022-07-26T06:46:30;21.60;50.00
30148;DHT22;16960;49.404;8.248;2022-07-26T06:48:59;21.70;49.80
30148;DHT22;16960;49.404;8.248;2022-07-26T06:51:26;21.70;49.70
30148;DHT22;16960;49.404;8.248;2022-07-26T06:53:53;21.80;49.70
30148;DHT22;16960;49.404;8.248;2022-07-26T06:56:19;21.90;49.30
30148;DHT22;16960;49.404;8.248;2022-07-26T06:58:46;21.90;49.30
30148;DHT22;16960;49.404;8.248;2022-07-26T07:01:13;21.90;49.40
30148;DHT22;16960;49.404;8.248;2022-07-26T07:03:41;21.90;49.50
30148;DHT22;16960;49.404;8.248;2022-07-26T07:06:11;21.90;49.50
30148;DHT22;16960;49.404;8.248;2022-07-26T07:08:38;21.90;49.60
30148;DHT22;16960;49.404;8.248;2022-07-26T07:11:05;21.90;49.80
30148;DHT22;16960;49.404;8.248;2022-07-26T07:13:32;21.90;49.70
30148;DHT22;16960;49.404;8.248;2022-07-26T07:15:59;21.90;49.60
30148;DHT22;16960;49.404;8.248;2022-07-26T07:18:26;21.80;49.90
30148;DHT22;16960;49.404;8.248;2022-07-26T07:20:53;21.60;50.10
30148;DHT22;16960;49.404;8.248;2022-07-26T07:23:21;21.60;50.00
30148;DHT22;16960;49.404;8.248;2022-07-26T07:25:48;21.60;50.00
30148;DHT22;16960;49.404;8.248;2022-07-26T07:28:15;21.50;50.30
30148;DHT22;16960;49.404;8.248;2022-07-26T07:30:42;21.50;50.20
30148;DHT22;16960;49.404;8.248;2022-07-26T07:33:09;21.30;50.10
30148;DHT22;16960;49.404;8.248;2022-07-26T07:35:39;21.30;50.50
30148;DHT22;16960;49.404;8.248;2022-07-26T07:38:07;21.40;50.50
30148;DHT22;16960;49.404;8.248;2022-07-26T07:40:35;21.40;50.40
30148;DHT22;16960;49.404;8.248;2022-07-26T07:43:03;21.50;50.10
30148;DHT22;16960;49.404;8.248;2022-07-26T07:45:30;21.60;50.00
30148;DHT22;16960;49.404;8.248;2022-07-26T07:47:57;21.60;49.90
30148;DHT22;16960;49.404;8.248;2022-07-26T07:50:24;21.60;49.80
30148;DHT22;16960;49.404;8.248;2022-07-26T07:52:51;21.70;49.80
30148;DHT22;16960;49.404;8.248;2022-07-26T07:55:18;21.70;49.70
30148;DHT22;16960;49.404;8.248;2022-07-26T07:57:46;21.80;49.50
30148;DHT22;16960;49.404;8.248;2022-07-26T08:00:14;22.00;49.00
30148;DHT22;16960;49.404;8.248;2022-07-26T08:02:44;22.10;48.70
30148;DHT22;16960;49.404;8.248;2022-07-26T08:05:11;22.30;48.50
30148;DHT22;16960;49.404;8.248;2022-07-26T08:07:38;22.40;48.40
30148;DHT22;16960;49.404;8.248;2022-07-26T08:10:05;22.40;48.10
30148;DHT22;16960;49.404;8.248;2022-07-26T08:12:32;22.50;48.00
30148;DHT22;16960;49.404;8.248;2022-07-26T08:15:01;22.60;47.80
30148;DHT22;16960;49.404;8.248;2022-07-26T08:17:28;22.60;47.70
30148;DHT22;16960;49.404;8.248;2022-07-26T08:19:55;22.70;47.80
30148;DHT22;16960;49.404;8.248;2022-07-26T08:22:22;22.70;47.80
30148;DHT22;16960;49.404;8.248;2022-07-26T08:24:49;22.70;47.70
30148;DHT22;16960;49.404;8.248;2022-07-26T08:27:17;22.80;47.50
30148;DHT22;16960;49.404;8.248;2022-07-26T08:29:44;22.80;47.50
30148;DHT22;16960;49.404;8.248;2022-07-26T08:32:12;22.90;47.50
30148;DHT22;16960;49.404;8.248;2022-07-26T08:34:39;22.90;47.50
30148;DHT22;16960;49.404;8.248;2022-07-26T08:37:06;22.90;47.30
30148;DHT22;16960;49.404;8.248;2022-07-26T08:39:33;22.90;47.30
30148;DHT22;16960;49.404;8.248;2022-07-26T08:42:01;23.00;47.20
30148;DHT22;16960;49.404;8.248;2022-07-26T08:44:28;23.00;47.20
30148;DHT22;16960;49.404;8.248;2022-07-26T08:46:55;23.00;47.20
30148;DHT22;16960;49.404;8.248;2022-07-26T08:49:24;23.10;47.90
30148;DHT22;16960;49.404;8.248;2022-07-26T08:51:52;23.10;47.20
30148;DHT22;16960;49.404;8.248;2022-07-26T08:54:19;23.10;47.10
30148;DHT22;16960;49.404;8.248;2022-07-26T08:56:50;23.20;47.10
30148;DHT22;16960;49.404;8.248;2022-07-26T08:59:19;23.10;46.90
30148;DHT22;16960;49.404;8.248;2022-07-26T09:01:54;23.20;46.80
30148;DHT22;16960;49.404;8.248;2022-07-26T09:04:24;23.30;46.90
30148;DHT22;16960;49.404;8.248;2022-07-26T09:06:56;23.30;46.90
30148;DHT22;16960;49.404;8.248;2022-07-26T09:09:23;23.30;46.80
30148;DHT22;16960;49.404;8.248;2022-07-26T09:11:51;23.30;46.80
30148;DHT22;16960;49.404;8.248;2022-07-26T09:14:18;23.30;46.80
30148;DHT22;16960;49.404;8.248;2022-07-26T09:16:56;23.30;46.70
30148;DHT22;16960;49.404;8.248;2022-07-26T09:19:26;23.40;46.70
30148;DHT22;16960;49.404;8.248;2022-07-26T09:21:53;23.40;46.70
30148;DHT22;16960;49.404;8.248;2022-07-26T09:24:33;23.40;46.70
30148;DHT22;16960;49.404;8.248;2022-07-26T09:27:02;23.40;46.60
30148;DHT22;16960;49.404;8.248;2022-07-26T09:29:30;23.40;46.50
30148;DHT22;16960;49.404;8.248;2022-07-26T09:32:12;23.50;46.50
30148;DHT22;16960;49.404;8.248;2022-07-26T09:34:43;23.50;46.50
30148;DHT22;16960;49.404;8.248;2022-07-26T09:37:10;23.50;46.50
30148;DHT22;16960;49.404;8.248;2022-07-26T09:39:56;23.50;46.40
30148;DHT22;16960;49.404;8.248;2022-07-26T09:42:24;23.60;46.40
30148;DHT22;16960;49.404;8.248;2022-07-26T09:44:51;23.60;46.40
30148;DHT22;16960;49.404;8.248;2022-07-26T09:47:19;23.60;46.40
30148;DHT22;16960;49.404;8.248;2022-07-26T09:49:47;23.60;46.40
30148;DHT22;16960;49.404;8.248;2022-07-26T09:52:16;23.60;46.30
30148;DHT22;16960;49.404;8.248;2022-07-26T09:54:44;23.70;46.40
30148;DHT22;16960;49.404;8.248;2022-07-26T09:57:16;23.70;46.30
30148;DHT22;16960;49.404;8.248;2022-07-26T09:59:44;23.70;46.30
30148;DHT22;16960;49.404;8.248;2022-07-26T10:02:12;23.80;46.20
30148;DHT22;16960;49.404;8.248;2022-07-26T10:04:40;23.80;46.20
30148;DHT22;16960;49.404;8.248;2022-07-26T10:07:09;23.80;46.20
30148;DHT22;16960;49.404;8.248;2022-07-26T10:09:44;23.80;46.80
30148;DHT22;16960;49.404;8.248;2022-07-26T10:12:13;23.90;46.20
30148;DHT22;16960;49.404;8.248;2022-07-26T10:14:42;23.80;46.10
30148;DHT22;16960;49.404;8.248;2022-07-26T10:17:43;23.90;46.20
30148;DHT22;16960;49.404;8.248;2022-07-26T10:20:44;23.90;46.10
30148;DHT22;16960;49.404;8.248;2022-07-26T10:23:35;23.90;46.10
30148;DHT22;16960;49.404;8.248;2022-07-26T10:26:04;24.00;46.10
30148;DHT22;16960;49.404;8.248;2022-07-26T10:28:33;23.90;46.10
30148;DHT22;16960;49.404;8.248;2022-07-26T10:31:26;24.00;46.00
30148;DHT22;16960;49.404;8.248;2022-07-26T10:33:55;24.00;45.90
30148;DHT22;16960;49.404;8.248;2022-07-26T10:36:25;24.00;45.90
30148;DHT22;16960;49.404;8.248;2022-07-26T10:39:08;24.10;46.00
30148;DHT22;16960;49.404;8.248;2022-07-26T10:41:38;24.10;46.00
30148;DHT22;16960;49.404;8.248;2022-07-26T10:44:16;24.10;45.90
30148;DHT22;16960;49.404;8.248;2022-07-26T10:47:14;24.10;45.80
30148;DHT22;16960;49.404;8.248;2022-07-26T10:49:53;24.20;45.80
30148;DHT22;16960;49.404;8.248;2022-07-26T10:52:23;24.20;45.80
30148;DHT22;16960;49.404;8.248;2022-07-26T10:55:18;24.20;45.70
30148;DHT22;16960;49.404;8.248;2022-07-26T10:57:47;24.20;45.70
30148;DHT22;16960;49.404;8.248;2022-07-26T11:00:18;24.20;45.70
30148;DHT22;16960;49.404;8.248;2022-07-26T11:02:56;24.30;45.80
30148;DHT22;16960;49.404;8.248;2022-07-26T11:05:28;24.30;45.90
30148;DHT22;16960;49.404;8.248;2022-07-26T11:07:58;24.30;45.80
30148;DHT22;16960;49.404;8.248;2022-07-26T11:10:29;24.30;45.80
30148;DHT22;16960;49.404;8.248;2022-07-26T11:13:06;24.30;45.90
30148;DHT22;16960;49.404;8.248;2022-07-26T11:15:35;24.30;45.90
30148;DHT22;16960;49.404;8.248;2022-07-26T11:18:07;24.40;46.00
30148;DHT22;16960;49.404;8.248;2022-07-26T11:20:35;24.40;46.00
30148;DHT22;16960;49.404;8.248;2022-07-26T11:23:04;24.40;45.90
30148;DHT22;16960;49.404;8.248;2022-07-26T11:25:59;24.50;45.90
30148;DHT22;16960;49.404;8.248;2022-07-26T11:28:27;24.50;46.20
30148;DHT22;16960;49.404;8.248;2022-07-26T11:30:57;24.50;46.30
30148;DHT22;16960;49.404;8.248;2022-07-26T11:33:34;24.50;46.20
30148;DHT22;16960;49.404;8.248;2022-07-26T11:36:02;24.60;46.10
30148;DHT22;16960;49.404;8.248;2022-07-26T11:38:46;24.60;46.10
30148;DHT22;16960;49.404;8.248;2022-07-26T11:41:17;24.60;46.00
30148;DHT22;16960;49.404;8.248;2022-07-26T11:43:45;24.60;45.90
30148;DHT22;16960;49.404;8.248;2022-07-26T11:46:12;24.60;45.90
30148;DHT22;16960;49.404;8.248;2022-07-26T11:48:44;24.70;45.90
30148;DHT22;16960;49.404;8.248;2022-07-26T11:51:12;24.70;45.80
30148;DHT22;16960;49.404;8.248;2022-07-26T11:53:40;24.70;45.80
30148;DHT22;16960;49.404;8.248;2022-07-26T11:56:12;24.70;45.80
30148;DHT22;16960;49.404;8.248;2022-07-26T11:58:42;24.70;45.70
30148;DHT22;16960;49.404;8.248;2022-07-26T12:01:09;24.70;45.70
30148;DHT22;16960;49.404;8.248;2022-07-26T12:03:40;24.80;45.60
30148;DHT22;16960;49.404;8.248;2022-07-26T12:06:09;24.80;45.60
30148;DHT22;16960;49.404;8.248;2022-07-26T12:08:41;24.90;45.70
30148;DHT22;16960;49.404;8.248;2022-07-26T12:11:09;24.80;45.50
30148;DHT22;16960;49.404;8.248;2022-07-26T12:13:58;24.90;45.60
30148;DHT22;16960;49.404;8.248;2022-07-26T12:16:42;24.90;45.50
30148;DHT22;16960;49.404;8.248;2022-07-26T12:19:22;24.90;45.60
30148;DHT22;16960;49.404;8.248;2022-07-26T12:21:51;24.90;45.60
30148;DHT22;16960;49.404;8.248;2022-07-26T12:24:41;24.90;45.50
30148;DHT22;16960;49.404;8.248;2022-07-26T12:27:10;24.90;45.50
30148;DHT22;16960;49.404;8.248;2022-07-26T12:29:41;24.90;45.50
30148;DHT22;16960;49.404;8.248;2022-07-26T12:32:10;25.00;45.50
30148;DHT22;16960;49.404;8.248;2022-07-26T12:34:39;25.00;45.40
30148;DHT22;16960;49.404;8.248;2022-07-26T12:37:15;25.00;45.40
30148;DHT22;16960;49.404;8.248;2022-07-26T12:39:58;25.00;45.40
30148;DHT22;16960;49.404;8.248;2022-07-26T12:42:27;25.10;45.40
30148;DHT22;16960;49.404;8.248;2022-07-26T12:44:57;25.00;45.40
30148;DHT22;16960;49.404;8.248;2022-07-26T12:47:24;25.10;45.30
30148;DHT22;16960;49.404;8.248;2022-07-26T12:49:51;25.10;45.30
30148;DHT22;16960;49.404;8.248;2022-07-26T12:52:20;25.10;45.30
30148;DHT22;16960;49.404;8.248;2022-07-26T12:54:49;25.10;45.30
30148;DHT22;16960;49.404;8.248;2022-07-26T12:57:16;25.10;45.90
30148;DHT22;16960;49.404;8.248;2022-07-26T12:59:43;25.10;45.20
30148;DHT22;16960;49.404;8.248;2022-07-26T13:02:12;25.10;45.20
30148;DHT22;16960;49.404;8.248;2022-07-26T13:04:39;25.20;45.20
30148;DHT22;16960;49.404;8.248;2022-07-26T13:07:06;25.20;45.10
30148;DHT22;16960;49.404;8.248;2022-07-26T13:09:33;25.20;45.10
30148;DHT22;16960;49.404;8.248;2022-07-26T13:12:00;25.20;45.10
30148;DHT22;16960;49.404;8.248;2022-07-26T13:14:27;25.20;45.00
30148;DHT22;16960;49.404;8.248;2022-07-26T13:16:54;25.20;45.00
30148;DHT22;16960;49.404;8.248;2022-07-26T13:19:23;25.30;44.90
30148;DHT22;16960;49.404;8.248;2022-07-26T13:21:50;25.30;44.90
30148;DHT22;16960;49.404;8.248;2022-07-26T13:24:17;25.30;44.90
30148;DHT22;16960;49.404;8.248;2022-07-26T13:26:44;25.30;45.00
30148;DHT22;16960;49.404;8.248;2022-07-26T13:29:10;25.30;44.90
30148;DHT22;16960;49.404;8.248;2022-07-26T13:31:37;25.40;44.90
30148;DHT22;16960;49.404;8.248;2022-07-26T13:34:05;25.40;44.80
30148;DHT22;16960;49.404;8.248;2022-07-26T13:36:33;25.40;44.80
30148;DHT22;16960;49.404;8.248;2022-07-26T13:39:00;25.50;44.80
30148;DHT22;16960;49.404;8.248;2022-07-26T13:41:28;25.50;44.70
30148;DHT22;16960;49.404;8.248;2022-07-26T13:43:55;25.50;44.80
30148;DHT22;16960;49.404;8.248;2022-07-26T13:46:22;25.50;45.50
30148;DHT22;16960;49.404;8.248;2022-07-26T13:48:51;25.60;44.70
30148;DHT22;16960;49.404;8.248;2022-07-26T13:51:18;25.60;44.70
30148;DHT22;16960;49.404;8.248;2022-07-26T13:53:46;25.60;44.70
30148;DHT22;16960;49.404;8.248;2022-07-26T13:56:13;25.60;44.70
30148;DHT22;16960;49.404;8.248;2022-07-26T13:58:40;25.60;44.60
30148;DHT22;16960;49.404;8.248;2022-07-26T14:01:07;25.60;44.70
30148;DHT22;16960;49.404;8.248;2022-07-26T14:03:34;25.70;45.30
30148;DHT22;16960;49.404;8.248;2022-07-26T14:06:01;25.60;44.60
30148;DHT22;16960;49.404;8.248;2022-07-26T14:08:28;25.60;44.60
30148;DHT22;16960;49.404;8.248;2022-07-26T14:10:56;25.70;44.60
30148;DHT22;16960;49.404;8.248;2022-07-26T14:13:23;25.70;44.60
30148;DHT22;16960;49.404;8.248;2022-07-26T14:15:50;25.70;44.50
30148;DHT22;16960;49.404;8.248;2022-07-26T14:18:17;25.80;44.50
30148;DHT22;16960;49.404;8.248;2022-07-26T14:20:44;25.80;44.50
30148;DHT22;16960;49.404;8.248;2022-07-26T14:23:11;25.80;44.50
30148;DHT22;16960;49.404;8.248;2022-07-26T14:25:38;25.80;44.50
30148;DHT22;16960;49.404;8.248;2022-07-26T14:28:06;25.80;44.50
30148;DHT22;16960;49.404;8.248;2022-07-26T14:30:34;25.80;44.50
30148;DHT22;16960;49.404;8.248;2022-07-26T14:33:01;25.80;44.50
30148;DHT22;16960;49.404;8.248;2022-07-26T14:35:29;25.90;44.50
30148;DHT22;16960;49.404;8.248;2022-07-26T14:37:56;25.90;44.60
30148;DHT22;16960;49.404;8.248;2022-07-26T14:40:23;25.90;44.60
30148;DHT22;16960;49.404;8.248;2022-07-26T14:42:50;25.90;44.60
30148;DHT22;16960;49.404;8.248;2022-07-26T14:45:18;25.90;44.60
30148;DHT22;16960;49.404;8.248;2022-07-26T14:47:45;25.90;44.60
30148;DHT22;16960;49.404;8.248;2022-07-26T14:50:13;26.00;45.10
30148;DHT22;16960;49.404;8.248;2022-07-26T14:52:43;26.00;45.20
30148;DHT22;16960;49.404;8.248;2022-07-26T14:55:10;26.00;45.10
30148;DHT22;16960;49.404;8.248;2022-07-26T14:57:38;26.00;45.10
30148;DHT22;16960;49.404;8.248;2022-07-26T15:00:06;26.00;45.20
30148;DHT22;16960;49.404;8.248;2022-07-26T15:02:37;26.00;45.30
30148;DHT22;16960;49.404;8.248;2022-07-26T15:05:05;26.10;45.30
30148;DHT22;16960;49.404;8.248;2022-07-26T15:07:32;26.00;45.30
30148;DHT22;16960;49.404;8.248;2022-07-26T15:09:59;26.10;45.20
30148;DHT22;16960;49.404;8.248;2022-07-26T15:12:26;26.10;45.20
30148;DHT22;16960;49.404;8.248;2022-07-26T15:14:53;26.10;45.20
30148;DHT22;16960;49.404;8.248;2022-07-26T15:17:19;26.10;45.10
30148;DHT22;16960;49.404;8.248;2022-07-26T15:19:48;26.10;45.10
30148;DHT22;16960;49.404;8.248;2022-07-26T15:22:15;26.10;45.10
30148;DHT22;16960;49.404;8.248;2022-07-26T15:24:42;26.20;45.00
30148;DHT22;16960;49.404;8.248;2022-07-26T15:27:09;26.20;45.00
30148;DHT22;16960;49.404;8.248;2022-07-26T15:29:36;26.20;45.00
30148;DHT22;16960;49.404;8.248;2022-07-26T15:32:04;26.20;45.00
30148;DHT22;16960;49.404;8.248;2022-07-26T15:34:31;26.20;45.00
30148;DHT22;16960;49.404;8.248;2022-07-26T15:37:00;26.20;45.00
30148;DHT22;16960;49.404;8.248;2022-07-26T15:39:27;26.20;44.90